sensor_id;sensor_type;location;lat;lon;timestamp;pressure;altitude;pressure_sealevel;temperature;humidity
40918;BME280;26644;50.248;19.032;2023-04-08T00:02:27;98230.03;;;3.23;82.98
40918;BME280;26644;50.248;19.032;2023-04-08T00:05:35;98241.69;;;3.36;82.48
40918;BME280;26644;50.248;19.032;2023-04-08T00:08:39;98238.72;;;3.37;82.24
40918;BME280;26644;50.248;19.032;2023-04-08T00:11:44;98251.00;;;3.40;81.67
40918;BME280;26644;50.248;19.032;2023-04-08T00:14:49;98244.16;;;3.37;81.48
40918;BME280;26644;50.248;19.032;2023-04-08T00:17:54;98250.88;;;3.35;81.60
40918;BME280;26644;50.248;19.032;2023-04-08T00:21:01;98257.16;;;3.35;81.72
40918;BME280;26644;50.248;19.032;2023-04-08T00:24:07;98251.38;;;3.20;81.82
40918;BME280;26644;50.248;19.032;2023-04-08T00:27:11;98254.44;;;3.23;82.05
40918;BME280;26644;50.248;19.032;2023-04-08T00:30:17;98259.88;;;3.23;81.95
40918;BME280;26644;50.248;19.032;2023-04-08T00:33:21;98261.53;;;3.24;81.85
40918;BME280;26644;50.248;19.032;2023-04-08T00:36:29;98263.75;;;3.27;81.81
40918;BME280;26644;50.248;19.032;2023-04-08T00:39:33;98269.06;;;3.34;81.37
40918;BME280;26644;50.248;19.032;2023-04-08T00:42:39;98263.28;;;3.31;81.30
40918;BME280;26644;50.248;19.032;2023-04-08T00:45:43;98266.59;;;3.33;81.08
40918;BME280;26644;50.248;19.032;2023-04-08T00:48:48;98267.41;;;3.33;81.01
40918;BME280;26644;50.248;19.032;2023-04-08T00:51:56;98228.97;;;3.13;80.95
40918;BME280;26644;50.248;19.032;2023-04-08T00:55:03;98256.91;;;3.25;80.92
40918;BME280;26644;50.248;19.032;2023-04-08T00:58:09;98267.88;;;3.30;80.58
40918;BME280;26644;50.248;19.032;2023-04-08T01:01:27;98269.06;;;3.22;80.56
40918;BME280;26644;50.248;19.032;2023-04-08T01:04:46;98271.66;;;3.17;80.33
40918;BME280;26644;50.248;19.032;2023-04-08T01:08:06;98268.38;;;3.15;80.68
40918;BME280;26644;50.248;19.032;2023-04-08T01:11:14;98275.09;;;3.13;80.32
40918;BME280;26644;50.248;19.032;2023-04-08T01:14:22;98281.44;;;3.18;79.73
40918;BME280;26644;50.248;19.032;2023-04-08T01:17:31;98281.81;;;3.10;79.34
40918;BME280;26644;50.248;19.032;2023-04-08T01:20:38;98290.19;;;3.08;79.45
40918;BME280;26644;50.248;19.032;2023-04-08T01:23:57;98278.16;;;3.04;79.84
40918;BME280;26644;50.248;19.032;2023-04-08T01:27:10;98280.13;;;2.97;79.64
40918;BME280;26644;50.248;19.032;2023-04-08T01:30:18;98280.13;;;2.97;79.81
40918;BME280;26644;50.248;19.032;2023-04-08T01:33:27;98280.84;;;2.92;79.47
40918;BME280;26644;50.248;19.032;2023-04-08T01:36:34;98283.66;;;2.86;79.29
40918;BME280;26644;50.248;19.032;2023-04-08T01:39:41;98291.66;;;2.81;79.40
40918;BME280;26644;50.248;19.032;2023-04-08T01:42:54;98285.13;;;2.70;79.16
40918;BME280;26644;50.248;19.032;2023-04-08T01:46:01;98289.38;;;2.66;79.64
40918;BME280;26644;50.248;19.032;2023-04-08T01:49:07;98289.59;;;2.64;79.73
40918;BME280;26644;50.248;19.032;2023-04-08T01:52:17;98297.28;;;2.67;80.03
40918;BME280;26644;50.248;19.032;2023-04-08T01:55:25;98293.50;;;2.68;79.76
40918;BME280;26644;50.248;19.032;2023-04-08T01:58:37;98285.31;;;2.56;79.43
40918;BME280;26644;50.248;19.032;2023-04-08T02:01:46;98288.88;;;2.57;79.29
40918;BME280;26644;50.248;19.032;2023-04-08T02:04:54;98295.88;;;2.65;79.83
40918;BME280;26644;50.248;19.032;2023-04-08T02:07:59;98296.16;;;2.56;79.34
40918;BME280;26644;50.248;19.032;2023-04-08T02:11:04;98275.53;;;2.43;79.33
40918;BME280;26644;50.248;19.032;2023-04-08T02:14:11;98283.03;;;2.41;79.38
40918;BME280;26644;50.248;19.032;2023-04-08T02:17:22;98279.38;;;2.36;79.39
40918;BME280;26644;50.248;19.032;2023-04-08T02:20:36;98300.53;;;2.27;79.34
40918;BME280;26644;50.248;19.032;2023-04-08T02:23:48;98304.22;;;2.33;79.70
40918;BME280;26644;50.248;19.032;2023-04-08T02:26:55;98305.38;;;2.25;79.64
40918;BME280;26644;50.248;19.032;2023-04-08T02:30:07;98311.03;;;2.23;79.74
40918;BME280;26644;50.248;19.032;2023-04-08T02:33:17;98297.78;;;2.15;79.74
40918;BME280;26644;50.248;19.032;2023-04-08T02:36:27;98291.72;;;2.01;79.96
40918;BME280;26644;50.248;19.032;2023-04-08T02:39:36;98292.91;;;2.05;80.39
40918;BME280;26644;50.248;19.032;2023-04-08T02:42:42;98292.28;;;2.03;80.22
40918;BME280;26644;50.248;19.032;2023-04-08T02:45:49;98307.88;;;2.08;80.24
40918;BME280;26644;50.248;19.032;2023-04-08T02:48:54;98311.03;;;2.05;80.36
40918;BME280;26644;50.248;19.032;2023-04-08T02:51:58;98321.13;;;1.98;80.35
40918;BME280;26644;50.248;19.032;2023-04-08T02:55:05;98317.06;;;1.88;80.55
40918;BME280;26644;50.248;19.032;2023-04-08T02:58:10;98317.88;;;1.89;80.71
40918;BME280;26644;50.248;19.032;2023-04-08T03:01:18;98326.91;;;1.83;80.63
40918;BME280;26644;50.248;19.032;2023-04-08T03:04:23;98330.00;;;1.68;81.03
40918;BME280;26644;50.248;19.032;2023-04-08T03:07:28;98323.97;;;1.66;81.19
40918;BME280;26644;50.248;19.032;2023-04-08T03:10:32;98334.94;;;1.71;81.24
40918;BME280;26644;50.248;19.032;2023-04-08T03:13:38;98333.69;;;1.73;81.32
40918;BME280;26644;50.248;19.032;2023-04-08T03:16:45;98340.28;;;1.77;81.09
40918;BME280;26644;50.248;19.032;2023-04-08T03:19:50;98327.41;;;1.73;81.09
40918;BME280;26644;50.248;19.032;2023-04-08T03:22:54;98334.50;;;1.74;81.17
40918;BME280;26644;50.248;19.032;2023-04-08T03:26:00;98334.88;;;1.77;81.33
40918;BME280;26644;50.248;19.032;2023-04-08T03:29:04;98329.69;;;1.76;80.97
40918;BME280;26644;50.248;19.032;2023-04-08T03:32:13;98342.31;;;1.82;80.79
40918;BME280;26644;50.248;19.032;2023-04-08T03:35:17;98345.88;;;1.83;80.76
40918;BME280;26644;50.248;19.032;2023-04-08T03:38:23;98339.31;;;1.72;80.59
40918;BME280;26644;50.248;19.032;2023-04-08T03:41:27;98352.31;;;1.82;80.83
40918;BME280;26644;50.248;19.032;2023-04-08T03:44:32;98352.72;;;1.85;80.79
40918;BME280;26644;50.248;19.032;2023-04-08T03:47:40;98349.22;;;1.78;80.69
40918;BME280;26644;50.248;19.032;2023-04-08T03:50:45;98354.16;;;1.88;80.74
40918;BME280;26644;50.248;19.032;2023-04-08T03:53:49;98357.66;;;1.88;80.73
40918;BME280;26644;50.248;19.032;2023-04-08T03:56:54;98359.09;;;1.91;80.51
40918;BME280;26644;50.248;19.032;2023-04-08T03:59:59;98352.72;;;1.85;80.50
40918;BME280;26644;50.248;19.032;2023-04-08T04:03:16;98362.91;;;1.83;80.39
40918;BME280;26644;50.248;19.032;2023-04-08T04:06:21;98368.34;;;1.83;80.55
40918;BME280;26644;50.248;19.032;2023-04-08T04:09:26;98364.19;;;1.81;80.34
40918;BME280;26644;50.248;19.032;2023-04-08T04:12:31;98367.69;;;1.88;80.05
40918;BME280;26644;50.248;19.032;2023-04-08T04:15:37;98371.81;;;1.90;79.84
40918;BME280;26644;50.248;19.032;2023-04-08T04:18:45;98373.44;;;1.91;79.63
40918;BME280;26644;50.248;19.032;2023-04-08T04:21:50;98371.03;;;1.83;79.67
40918;BME280;26644;50.248;19.032;2023-04-08T04:24:54;98382.41;;;1.92;79.21
40918;BME280;26644;50.248;19.032;2023-04-08T04:27:59;98394.84;;;2.00;79.25
40918;BME280;26644;50.248;19.032;2023-04-08T04:31:04;98369.31;;;1.89;79.05
40918;BME280;26644;50.248;19.032;2023-04-08T04:34:12;98390.41;;;2.05;79.41
40918;BME280;26644;50.248;19.032;2023-04-08T04:37:17;98390.31;;;2.12;79.15
40918;BME280;26644;50.248;19.032;2023-04-08T04:40:22;98402.59;;;2.15;78.80
40918;BME280;26644;50.248;19.032;2023-04-08T04:43:27;98388.16;;;2.02;78.90
40918;BME280;26644;50.248;19.032;2023-04-08T04:46:35;98395.97;;;2.10;79.36
40918;BME280;26644;50.248;19.032;2023-04-08T04:49:42;98401.97;;;2.13;79.44
40918;BME280;26644;50.248;19.032;2023-04-08T04:52:47;98408.31;;;2.06;79.61
40918;BME280;26644;50.248;19.032;2023-04-08T04:55:52;98397.97;;;1.97;79.62
40918;BME280;26644;50.248;19.032;2023-04-08T04:58:57;98419.38;;;2.05;79.61
40918;BME280;26644;50.248;19.032;2023-04-08T05:02:02;98410.41;;;2.04;79.88
40918;BME280;26644;50.248;19.032;2023-04-08T05:05:10;98420.19;;;2.05;79.99
40918;BME280;26644;50.248;19.032;2023-04-08T05:08:14;98414.84;;;1.99;80.08
40918;BME280;26644;50.248;19.032;2023-04-08T05:11:19;98423.66;;;2.13;80.14
40918;BME280;26644;50.248;19.032;2023-04-08T05:14:24;98434.06;;;2.16;79.80
40918;BME280;26644;50.248;19.032;2023-04-08T05:17:32;98431.28;;;2.22;79.84
40918;BME280;26644;50.248;19.032;2023-04-08T05:20:39;98401.47;;;2.04;79.62
40918;BME280;26644;50.248;19.032;2023-04-08T05:23:45;98439.56;;;2.27;79.59
40918;BME280;26644;50.248;19.032;2023-04-08T05:26:51;98435.19;;;2.26;79.28
40918;BME280;26644;50.248;19.032;2023-04-08T05:29:58;98449.13;;;2.49;79.26
40918;BME280;26644;50.248;19.032;2023-04-08T05:33:02;98454.06;;;2.52;78.78
40918;BME280;26644;50.248;19.032;2023-04-08T05:36:11;98466.81;;;2.51;78.58
40918;BME280;26644;50.248;19.032;2023-04-08T05:39:16;98455.44;;;2.61;78.94
40918;BME280;26644;50.248;19.032;2023-04-08T05:42:21;98457.22;;;2.67;78.01
40918;BME280;26644;50.248;19.032;2023-04-08T05:45:27;98457.16;;;2.74;78.24
40918;BME280;26644;50.248;19.032;2023-04-08T05:48:33;98476.19;;;2.86;77.51
40918;BME280;26644;50.248;19.032;2023-04-08T05:51:40;98463.78;;;2.78;77.23
40918;BME280;26644;50.248;19.032;2023-04-08T05:54:45;98470.16;;;2.84;76.91
40918;BME280;26644;50.248;19.032;2023-04-08T05:57:50;98473.97;;;2.94;77.22
40918;BME280;26644;50.248;19.032;2023-04-08T06:00:55;98482.31;;;3.11;77.45
40918;BME280;26644;50.248;19.032;2023-04-08T06:03:59;98472.78;;;3.21;76.55
40918;BME280;26644;50.248;19.032;2023-04-08T06:07:07;98487.41;;;3.50;75.86
40918;BME280;26644;50.248;19.032;2023-04-08T06:10:12;98485.22;;;3.71;75.04
40918;BME280;26644;50.248;19.032;2023-04-08T06:13:17;98481.13;;;3.92;74.57
40918;BME280;26644;50.248;19.032;2023-04-08T06:16:22;98482.41;;;4.25;73.79
40918;BME280;26644;50.248;19.032;2023-04-08T06:19:27;98496.00;;;4.60;72.08
40918;BME280;26644;50.248;19.032;2023-04-08T06:22:34;98496.31;;;4.76;70.93
40918;BME280;26644;50.248;19.032;2023-04-08T06:25:40;98487.94;;;4.66;70.58
40918;BME280;26644;50.248;19.032;2023-04-08T06:28:44;98514.31;;;4.65;70.24
40918;BME280;26644;50.248;19.032;2023-04-08T06:31:50;98489.00;;;4.53;70.32
40918;BME280;26644;50.248;19.032;2023-04-08T06:34:54;98503.81;;;4.69;70.69
40918;BME280;26644;50.248;19.032;2023-04-08T06:38:02;98516.16;;;4.88;69.27
40918;BME280;26644;50.248;19.032;2023-04-08T06:41:07;98504.22;;;4.89;69.40
40918;BME280;26644;50.248;19.032;2023-04-08T06:44:12;98516.94;;;5.13;68.22
40918;BME280;26644;50.248;19.032;2023-04-08T06:47:16;98524.63;;;5.16;68.84
40918;BME280;26644;50.248;19.032;2023-04-08T06:50:22;98532.16;;;5.25;68.48
40918;BME280;26644;50.248;19.032;2023-04-08T06:53:29;98531.59;;;5.69;67.96
40918;BME280;26644;50.248;19.032;2023-04-08T06:56:34;98534.38;;;6.20;64.88
40918;BME280;26644;50.248;19.032;2023-04-08T06:59:39;98503.38;;;6.66;62.11
40918;BME280;26644;50.248;19.032;2023-04-08T07:02:44;98532.66;;;7.09;60.64
40918;BME280;26644;50.248;19.032;2023-04-08T07:05:49;98535.72;;;7.40;59.74
40918;BME280;26644;50.248;19.032;2023-04-08T07:08:56;98541.50;;;7.44;59.90
40918;BME280;26644;50.248;19.032;2023-04-08T07:12:01;98555.94;;;7.67;58.70
40918;BME280;26644;50.248;19.032;2023-04-08T07:15:08;98552.41;;;7.66;58.53
40918;BME280;26644;50.248;19.032;2023-04-08T07:18:13;98552.09;;;8.22;57.42
40918;BME280;26644;50.248;19.032;2023-04-08T07:21:18;98555.56;;;8.93;56.77
40918;BME280;26644;50.248;19.032;2023-04-08T07:24:25;98566.97;;;9.17;53.01
40918;BME280;26644;50.248;19.032;2023-04-08T07:27:32;98566.38;;;9.10;53.63
40918;BME280;26644;50.248;19.032;2023-04-08T07:30:37;98560.41;;;8.75;53.63
40918;BME280;26644;50.248;19.032;2023-04-08T07:33:43;98544.31;;;8.09;54.88
40918;BME280;26644;50.248;19.032;2023-04-08T07:36:48;98566.00;;;7.61;56.00
40918;BME280;26644;50.248;19.032;2023-04-08T07:39:56;98568.34;;;7.25;58.02
40918;BME280;26644;50.248;19.032;2023-04-08T07:43:00;98566.19;;;6.88;58.75
40918;BME280;26644;50.248;19.032;2023-04-08T07:46:06;98564.13;;;6.78;59.81
40918;BME280;26644;50.248;19.032;2023-04-08T07:49:10;98579.31;;;6.91;58.78
40918;BME280;26644;50.248;19.032;2023-04-08T07:52:16;98563.75;;;6.91;58.61
40918;BME280;26644;50.248;19.032;2023-04-08T07:55:23;98573.41;;;7.38;56.80
40918;BME280;26644;50.248;19.032;2023-04-08T07:58:28;98565.81;;;8.27;56.75
40918;BME280;26644;50.248;19.032;2023-04-08T08:01:33;98565.09;;;9.28;53.08
40918;BME280;26644;50.248;19.032;2023-04-08T08:04:38;98567.16;;;9.84;51.52
40918;BME280;26644;50.248;19.032;2023-04-08T08:07:43;98576.50;;;9.93;48.95
40918;BME280;26644;50.248;19.032;2023-04-08T08:10:51;98582.81;;;9.89;49.05
40918;BME280;26644;50.248;19.032;2023-04-08T08:13:55;98572.88;;;9.67;49.80
40918;BME280;26644;50.248;19.032;2023-04-08T08:17:02;98573.81;;;10.14;50.01
40918;BME280;26644;50.248;19.032;2023-04-08T08:20:07;98571.63;;;10.47;48.44
40918;BME280;26644;50.248;19.032;2023-04-08T08:23:13;98591.81;;;11.23;48.52
40918;BME280;26644;50.248;19.032;2023-04-08T08:26:20;98576.56;;;12.07;46.85
40918;BME280;26644;50.248;19.032;2023-04-08T08:29:25;98583.03;;;12.90;44.77
40918;BME280;26644;50.248;19.032;2023-04-08T08:32:30;98600.47;;;13.58;42.76
40918;BME280;26644;50.248;19.032;2023-04-08T08:35:35;98600.06;;;13.70;42.13
40918;BME280;26644;50.248;19.032;2023-04-08T08:38:39;98592.34;;;14.10;41.79
40918;BME280;26644;50.248;19.032;2023-04-08T08:41:47;98592.09;;;14.45;40.61
40918;BME280;26644;50.248;19.032;2023-04-08T08:44:53;98602.84;;;14.80;40.49
40918;BME280;26644;50.248;19.032;2023-04-08T08:47:59;98602.78;;;14.99;39.99
40918;BME280;26644;50.248;19.032;2023-04-08T08:51:07;98612.13;;;15.31;39.14
40918;BME280;26644;50.248;19.032;2023-04-08T08:54:13;98612.75;;;15.83;39.15
40918;BME280;26644;50.248;19.032;2023-04-08T08:57:20;98609.06;;;16.24;37.79
40918;BME280;26644;50.248;19.032;2023-04-08T09:00:32;98617.56;;;16.05;37.83
40918;BME280;26644;50.248;19.032;2023-04-08T09:03:37;98630.25;;;15.09;38.58
40918;BME280;26644;50.248;19.032;2023-04-08T09:06:43;98625.31;;;14.40;40.19
40918;BME280;26644;50.248;19.032;2023-04-08T09:09:50;98622.03;;;14.19;40.50
40918;BME280;26644;50.248;19.032;2023-04-08T09:12:59;98626.03;;;14.07;41.17
40918;BME280;26644;50.248;19.032;2023-04-08T09:16:05;98637.25;;;13.97;40.94
40918;BME280;26644;50.248;19.032;2023-04-08T09:19:13;98625.47;;;13.67;41.46
40918;BME280;26644;50.248;19.032;2023-04-08T09:22:17;98649.38;;;13.28;42.08
40918;BME280;26644;50.248;19.032;2023-04-08T09:25:24;98639.56;;;13.12;43.08
40918;BME280;26644;50.248;19.032;2023-04-08T09:28:32;98639.56;;;13.66;43.08
40918;BME280;26644;50.248;19.032;2023-04-08T09:31:38;98644.56;;;14.26;41.52
40918;BME280;26644;50.248;19.032;2023-04-08T09:34:44;98652.47;;;14.71;39.76
40918;BME280;26644;50.248;19.032;2023-04-08T09:37:50;98639.06;;;14.45;39.86
40918;BME280;26644;50.248;19.032;2023-04-08T09:40:54;98653.22;;;14.00;39.73
40918;BME280;26644;50.248;19.032;2023-04-08T09:44:05;98649.94;;;13.25;41.12
40918;BME280;26644;50.248;19.032;2023-04-08T09:47:18;98642.00;;;13.19;41.49
40918;BME280;26644;50.248;19.032;2023-04-08T09:50:39;98652.13;;;12.99;41.48
40918;BME280;26644;50.248;19.032;2023-04-08T09:53:49;98643.41;;;12.52;42.44
40918;BME280;26644;50.248;19.032;2023-04-08T09:57:06;98640.38;;;12.54;42.87
40918;BME280;26644;50.248;19.032;2023-04-08T10:00:23;98644.25;;;12.53;42.86
40918;BME280;26644;50.248;19.032;2023-04-08T10:03:39;98649.09;;;12.66;42.93
40918;BME280;26644;50.248;19.032;2023-04-08T10:06:53;98647.34;;;12.81;42.13
40918;BME280;26644;50.248;19.032;2023-04-08T10:10:05;98650.53;;;12.58;42.21
40918;BME280;26644;50.248;19.032;2023-04-08T10:13:11;98632.19;;;12.04;43.21
40918;BME280;26644;50.248;19.032;2023-04-08T10:16:23;98633.75;;;11.60;44.20
40918;BME280;26644;50.248;19.032;2023-04-08T10:19:37;98637.44;;;11.24;45.00
40918;BME280;26644;50.248;19.032;2023-04-08T10:22:47;98638.03;;;10.85;45.88
40918;BME280;26644;50.248;19.032;2023-04-08T10:25:52;98646.03;;;10.87;45.92
40918;BME280;26644;50.248;19.032;2023-04-08T10:32:47;98649.03;;;10.85;46.63
40918;BME280;26644;50.248;19.032;2023-04-08T10:35:53;98654.25;;;10.92;46.16
40918;BME280;26644;50.248;19.032;2023-04-08T10:39:03;98635.81;;;11.08;46.20
40918;BME280;26644;50.248;19.032;2023-04-08T10:42:08;98654.44;;;11.32;45.63
40918;BME280;26644;50.248;19.032;2023-04-08T10:45:15;98652.31;;;11.08;44.83
40918;BME280;26644;50.248;19.032;2023-04-08T10:48:24;98649.88;;;10.65;45.77
40918;BME280;26644;50.248;19.032;2023-04-08T10:51:29;98655.59;;;10.27;46.42
40918;BME280;26644;50.248;19.032;2023-04-08T10:54:36;98662.44;;;10.20;46.05
40918;BME280;26644;50.248;19.032;2023-04-08T10:57:41;98652.53;;;10.03;46.32
40918;BME280;26644;50.248;19.032;2023-04-08T11:00:46;98653.38;;;10.19;46.85
40918;BME280;26644;50.248;19.032;2023-04-08T11:03:54;98653.41;;;10.45;46.31
40918;BME280;26644;50.248;19.032;2023-04-08T11:06:59;98658.09;;;10.50;46.85
40918;BME280;26644;50.248;19.032;2023-04-08T11:10:10;98635.84;;;10.46;46.18
40918;BME280;26644;50.248;19.032;2023-04-08T11:13:15;98649.25;;;10.32;46.30
40918;BME280;26644;50.248;19.032;2023-04-08T11:16:20;98657.75;;;10.20;46.54
40918;BME280;26644;50.248;19.032;2023-04-08T11:19:29;98654.44;;;10.08;47.04
40918;BME280;26644;50.248;19.032;2023-04-08T11:22:35;98653.06;;;10.00;48.05
40918;BME280;26644;50.248;19.032;2023-04-08T11:25:42;98647.53;;;9.95;48.86
40918;BME280;26644;50.248;19.032;2023-04-08T11:28:48;98649.78;;;9.98;49.74
40918;BME280;26644;50.248;19.032;2023-04-08T11:31:54;98653.84;;;9.90;50.17
40918;BME280;26644;50.248;19.032;2023-04-08T11:35:04;98651.38;;;9.84;50.00
40918;BME280;26644;50.248;19.032;2023-04-08T11:38:11;98660.59;;;9.62;49.43
40918;BME280;26644;50.248;19.032;2023-04-08T11:41:15;98644.97;;;9.63;50.30
40918;BME280;26644;50.248;19.032;2023-04-08T11:44:29;98639.22;;;9.64;49.84
40918;BME280;26644;50.248;19.032;2023-04-08T11:47:34;98640.31;;;9.63;49.52
40918;BME280;26644;50.248;19.032;2023-04-08T11:50:43;98657.59;;;9.64;49.10
40918;BME280;26644;50.248;19.032;2023-04-08T11:53:48;98648.84;;;9.72;49.75
40918;BME280;26644;50.248;19.032;2023-04-08T11:56:54;98650.75;;;9.71;49.89
40918;BME280;26644;50.248;19.032;2023-04-08T11:59:59;98654.59;;;9.65;50.03
40918;BME280;26644;50.248;19.032;2023-04-08T12:03:12;98657.75;;;9.36;50.56
40918;BME280;26644;50.248;19.032;2023-04-08T12:06:20;98651.31;;;9.15;51.20
40918;BME280;26644;50.248;19.032;2023-04-08T12:09:25;98664.09;;;8.99;51.99
40918;BME280;26644;50.248;19.032;2023-04-08T12:12:30;98662.84;;;8.85;52.32
40918;BME280;26644;50.248;19.032;2023-04-08T12:15:35;98655.06;;;8.66;53.14
40918;BME280;26644;50.248;19.032;2023-04-08T12:18:39;98650.59;;;8.55;53.63
40918;BME280;26644;50.248;19.032;2023-04-08T12:21:47;98640.41;;;8.50;54.14
40918;BME280;26644;50.248;19.032;2023-04-08T12:24:52;98653.13;;;8.61;54.55
40918;BME280;26644;50.248;19.032;2023-04-08T12:27:57;98656.53;;;8.79;54.69
40918;BME280;26644;50.248;19.032;2023-04-08T12:31:02;98654.38;;;8.86;54.48
40918;BME280;26644;50.248;19.032;2023-04-08T12:34:07;98638.22;;;8.85;54.45
40918;BME280;26644;50.248;19.032;2023-04-08T12:37:14;98645.66;;;8.89;54.94
40918;BME280;26644;50.248;19.032;2023-04-08T12:40:19;98651.09;;;8.84;55.86
40918;BME280;26644;50.248;19.032;2023-04-08T12:43:24;98656.44;;;8.69;56.93
40918;BME280;26644;50.248;19.032;2023-04-08T12:46:29;98587.06;;;8.15;57.29
40918;BME280;26644;50.248;19.032;2023-04-08T12:49:33;98652.59;;;8.65;57.31
40918;BME280;26644;50.248;19.032;2023-04-08T12:52:41;98660.63;;;8.76;57.38
40918;BME280;26644;50.248;19.032;2023-04-08T12:55:45;98652.72;;;8.80;56.84
40918;BME280;26644;50.248;19.032;2023-04-08T12:58:52;98669.59;;;8.72;56.71
40918;BME280;26644;50.248;19.032;2023-04-08T13:01:57;98662.66;;;8.59;57.79
40918;BME280;26644;50.248;19.032;2023-04-08T13:05:03;98663.66;;;8.48;58.24
40918;BME280;26644;50.248;19.032;2023-04-08T13:08:11;98666.28;;;8.32;58.87
40918;BME280;26644;50.248;19.032;2023-04-08T13:11:17;98672.13;;;8.19;59.62
40918;BME280;26644;50.248;19.032;2023-04-08T13:14:22;98653.09;;;8.02;60.16
40918;BME280;26644;50.248;19.032;2023-04-08T13:17:27;98646.53;;;8.03;60.28
40918;BME280;26644;50.248;19.032;2023-04-08T13:20:31;98657.09;;;8.21;60.16
40918;BME280;26644;50.248;19.032;2023-04-08T13:23:40;98656.03;;;8.22;60.25
40918;BME280;26644;50.248;19.032;2023-04-08T13:26:44;98673.84;;;8.25;60.32
40918;BME280;26644;50.248;19.032;2023-04-08T13:29:49;98665.84;;;8.18;60.71
40918;BME280;26644;50.248;19.032;2023-04-08T13:32:54;98665.25;;;8.16;60.83
40918;BME280;26644;50.248;19.032;2023-04-08T13:35:59;98667.97;;;8.11;61.26
40918;BME280;26644;50.248;19.032;2023-04-08T13:39:06;98667.38;;;8.09;61.67
40918;BME280;26644;50.248;19.032;2023-04-08T13:42:11;98669.25;;;8.03;62.27
40918;BME280;26644;50.248;19.032;2023-04-08T13:45:16;98650.75;;;7.88;62.81
40918;BME280;26644;50.248;19.032;2023-04-08T13:48:21;98652.59;;;7.83;63.00
40918;BME280;26644;50.248;19.032;2023-04-08T13:51:26;98662.66;;;7.99;63.02
40918;BME280;26644;50.248;19.032;2023-04-08T13:54:34;98639.56;;;7.90;62.85
40918;BME280;26644;50.248;19.032;2023-04-08T13:57:40;98651.44;;;8.01;62.83
40918;BME280;26644;50.248;19.032;2023-04-08T14:00:45;98661.00;;;7.98;63.04
40918;BME280;26644;50.248;19.032;2023-04-08T14:03:51;98649.66;;;7.89;63.24
40918;BME280;26644;50.248;19.032;2023-04-08T14:06:56;98665.25;;;7.89;63.30
40918;BME280;26644;50.248;19.032;2023-04-08T14:10:04;98675.00;;;7.80;63.51
40918;BME280;26644;50.248;19.032;2023-04-08T14:13:10;98677.28;;;7.66;64.51
40918;BME280;26644;50.248;19.032;2023-04-08T14:16:15;98662.03;;;7.48;65.10
40918;BME280;26644;50.248;19.032;2023-04-08T14:19:20;98661.16;;;7.42;65.53
40918;BME280;26644;50.248;19.032;2023-04-08T14:22:24;98644.56;;;7.26;65.96
40918;BME280;26644;50.248;19.032;2023-04-08T14:25:32;98634.84;;;7.36;66.01
40918;BME280;26644;50.248;19.032;2023-04-08T14:28:37;98658.16;;;7.43;65.97
40918;BME280;26644;50.248;19.032;2023-04-08T14:31:42;98645.97;;;7.51;65.88
40918;BME280;26644;50.248;19.032;2023-04-08T14:34:46;98657.25;;;7.60;65.75
40918;BME280;26644;50.248;19.032;2023-04-08T14:37:52;98662.16;;;7.58;66.03
40918;BME280;26644;50.248;19.032;2023-04-08T14:41:00;98646.59;;;7.58;66.17
40918;BME280;26644;50.248;19.032;2023-04-08T14:44:05;98648.81;;;7.61;66.24
40918;BME280;26644;50.248;19.032;2023-04-08T14:47:09;98657.34;;;7.65;66.24
40918;BME280;26644;50.248;19.032;2023-04-08T14:50:15;98658.53;;;7.74;65.86
40918;BME280;26644;50.248;19.032;2023-04-08T14:53:20;98655.22;;;7.72;66.09
40918;BME280;26644;50.248;19.032;2023-04-08T14:56:27;98651.16;;;7.75;65.90
40918;BME280;26644;50.248;19.032;2023-04-08T14:59:32;98658.53;;;7.74;66.13
40918;BME280;26644;50.248;19.032;2023-04-08T15:02:37;98656.88;;;7.73;66.13
40918;BME280;26644;50.248;19.032;2023-04-08T15:05:42;98655.03;;;7.79;66.23
40918;BME280;26644;50.248;19.032;2023-04-08T15:08:47;98651.53;;;7.84;66.37
40918;BME280;26644;50.248;19.032;2023-04-08T15:11:54;98666.06;;;7.89;66.03
40918;BME280;26644;50.248;19.032;2023-04-08T15:14:59;98661.44;;;7.90;66.41
40918;BME280;26644;50.248;19.032;2023-04-08T15:18:04;98655.53;;;7.98;66.18
40918;BME280;26644;50.248;19.032;2023-04-08T15:21:09;98664.34;;;8.05;65.79
40918;BME280;26644;50.248;19.032;2023-04-08T15:24:14;98661.34;;;8.07;66.22
40918;BME280;26644;50.248;19.032;2023-04-08T15:27:22;98666.56;;;8.08;65.93
40918;BME280;26644;50.248;19.032;2023-04-08T15:30:27;98666.56;;;8.08;66.35
40918;BME280;26644;50.248;19.032;2023-04-08T15:33:36;98668.78;;;8.11;66.31
40918;BME280;26644;50.248;19.032;2023-04-08T15:36:41;98665.25;;;8.16;66.02
40918;BME280;26644;50.248;19.032;2023-04-08T15:39:48;98664.38;;;8.10;66.29
40918;BME280;26644;50.248;19.032;2023-04-08T15:42:56;98664.28;;;8.00;66.77
40918;BME280;26644;50.248;19.032;2023-04-08T15:46:01;98622.69;;;7.71;66.75
40918;BME280;26644;50.248;19.032;2023-04-08T15:49:05;98653.59;;;7.99;67.01
40918;BME280;26644;50.248;19.032;2023-04-08T15:52:11;98653.91;;;8.02;66.70
40918;BME280;26644;50.248;19.032;2023-04-08T15:55:15;98661.34;;;8.07;66.91
40918;BME280;26644;50.248;19.032;2023-04-08T15:58:23;98668.78;;;8.11;66.79
40918;BME280;26644;50.248;19.032;2023-04-08T16:01:28;98661.34;;;8.07;66.87
40918;BME280;26644;50.248;19.032;2023-04-08T16:04:34;98666.06;;;8.11;66.75
40918;BME280;26644;50.248;19.032;2023-04-08T16:07:38;98674.63;;;8.20;66.53
40918;BME280;26644;50.248;19.032;2023-04-08T16:10:43;98673.78;;;8.20;66.60
40918;BME280;26644;50.248;19.032;2023-04-08T16:13:51;98679.56;;;8.23;66.55
40918;BME280;26644;50.248;19.032;2023-04-08T16:16:56;98683.69;;;8.26;66.46
40918;BME280;26644;50.248;19.032;2023-04-08T16:20:01;98677.91;;;8.22;66.55
40918;BME280;26644;50.248;19.032;2023-04-08T16:23:06;98680.31;;;8.19;66.61
40918;BME280;26644;50.248;19.032;2023-04-08T16:26:11;98677.03;;;8.17;66.96
40918;BME280;26644;50.248;19.032;2023-04-08T16:29:18;98677.31;;;8.15;66.93